Terminal Aerodrome Forecast
Issued by NWS

Home | Current Version | Previous Version | Text Only | Print | Product List | Glossary On
Versions: 1 2 3 4 5 6 7 8 9 10 11 12 13 14 15 16 17 18
000
FTUS46 KOTX 091132
TAFMWH
TAF
KMWH 091132Z 0912/1012 03008KT P6SM OVC027
     FM091600 02009KT P6SM OVC030
     FM092100 05006KT P6SM -SN OVC020
     FM100000 01006KT 3SM -SN SCT004 OVC017
     FM100400 03005KT 1SM -SN OVC004=

USA.gov is the U.S. government's official web portal to all federal, state and local government web resources and services.